createdAt,value
2022-07-25T00:01:55.813Z,7.05
2022-07-25T00:04:24.282Z,7.72
2022-07-25T00:06:51.680Z,10.40
2022-07-25T00:09:19.069Z,9.23
2022-07-25T00:11:46.396Z,18.08
2022-07-25T00:14:13.904Z,9.23
2022-07-25T00:16:41.332Z,7.35
2022-07-25T00:19:08.604Z,8.52
2022-07-25T00:21:36.083Z,8.18
2022-07-25T00:24:03.835Z,7.53
2022-07-25T00:26:33.532Z,6.60
2022-07-25T00:29:04.007Z,8.98
2022-07-25T00:31:31.459Z,11.85
2022-07-25T00:33:58.787Z,7.00
2022-07-25T00:36:26.086Z,9.75
2022-07-25T00:38:53.372Z,7.20
2022-07-25T00:41:20.759Z,9.95
2022-07-25T00:43:48.196Z,9.20
2022-07-25T00:46:18.956Z,7.35
2022-07-25T00:48:47.068Z,6.97
2022-07-25T00:51:16.298Z,10.40
2022-07-25T00:53:44.769Z,8.30
2022-07-25T00:56:12.165Z,8.45
2022-07-25T00:58:39.423Z,8.55
2022-07-25T01:01:06.878Z,9.75
2022-07-25T01:03:34.248Z,6.60
2022-07-25T01:06:01.740Z,7.55
2022-07-25T01:08:29.294Z,9.95
2022-07-25T01:10:56.569Z,8.45
2022-07-25T01:13:23.902Z,8.20
2022-07-25T01:15:51.223Z,9.77
2022-07-25T01:18:18.602Z,7.88
2022-07-25T01:20:45.954Z,7.57
2022-07-25T01:23:13.217Z,7.30
2022-07-25T01:25:40.525Z,9.48
2022-07-25T01:28:08.531Z,10.55
2022-07-25T01:30:35.955Z,9.57
2022-07-25T01:33:06.851Z,9.93
2022-07-25T01:35:36.257Z,8.35
2022-07-25T01:38:06.373Z,7.95
2022-07-25T01:40:33.700Z,7.80
2022-07-25T01:43:00.994Z,7.53
2022-07-25T01:45:28.446Z,9.98
2022-07-25T01:47:55.797Z,8.50
2022-07-25T01:50:23.174Z,8.55
2022-07-25T01:52:50.759Z,9.45
2022-07-25T01:55:18.886Z,6.68
2022-07-25T01:57:49.747Z,6.97
2022-07-25T02:00:18.273Z,8.25
2022-07-25T02:02:46.126Z,8.48
2022-07-25T02:05:16.256Z,7.78
2022-07-25T02:07:43.492Z,8.90
2022-07-25T02:10:10.944Z,9.35
2022-07-25T02:13:06.219Z,7.18
2022-07-25T02:15:33.501Z,8.70
2022-07-25T02:18:00.838Z,8.93
2022-07-25T02:20:28.131Z,7.97
2022-07-25T02:22:55.427Z,7.63
2022-07-25T02:25:22.693Z,8.10
2022-07-25T02:27:50.221Z,7.00
2022-07-25T02:30:17.602Z,9.55
2022-07-25T02:32:44.893Z,6.95
2022-07-25T02:35:12.948Z,9.45
2022-07-25T02:37:41.239Z,9.45
2022-07-25T02:40:09.100Z,10.30
2022-07-25T02:42:36.406Z,6.93
2022-07-25T02:45:04.328Z,7.30
2022-07-25T02:47:31.608Z,7.28
2022-07-25T02:49:58.910Z,8.48
2022-07-25T02:52:26.218Z,9.27
2022-07-25T02:54:53.568Z,6.68
2022-07-25T02:57:20.870Z,7.00
2022-07-25T02:59:48.205Z,7.30
2022-07-25T03:02:15.553Z,8.63
2022-07-25T03:04:42.865Z,8.48
2022-07-25T03:07:10.211Z,9.27
2022-07-25T03:09:37.601Z,9.18
2022-07-25T03:12:05.576Z,9.07
2022-07-25T03:14:32.859Z,6.45
2022-07-25T03:17:00.168Z,6.68
2022-07-25T03:19:27.463Z,7.53
2022-07-25T03:21:54.727Z,6.93
2022-07-25T03:24:22.045Z,7.97
2022-07-25T03:26:49.576Z,6.32
2022-07-25T03:29:16.933Z,7.90
2022-07-25T03:31:44.380Z,6.70
2022-07-25T03:34:11.672Z,7.72
2022-07-25T03:36:39.000Z,8.38
2022-07-25T03:39:06.266Z,6.65
2022-07-25T03:41:33.656Z,10.98
2022-07-25T03:44:00.920Z,6.63
2022-07-25T03:46:28.357Z,7.75
2022-07-25T03:48:55.898Z,7.88
2022-07-25T03:51:23.247Z,10.52
2022-07-25T03:54:02.479Z,10.63
2022-07-25T03:56:49.840Z,10.98
2022-07-25T03:59:21.313Z,12.23
2022-07-25T04:01:50.266Z,10.15
2022-07-25T04:04:19.066Z,11.60
2022-07-25T04:06:47.163Z,12.18
2022-07-25T04:09:15.671Z,10.88
2022-07-25T04:11:43.128Z,10.73
2022-07-25T04:14:10.788Z,9.77
2022-07-25T04:16:38.499Z,12.85
2022-07-25T04:19:08.040Z,8.65
2022-07-25T04:21:36.054Z,7.45
2022-07-25T04:24:03.980Z,8.10
2022-07-25T04:26:31.606Z,8.65
2022-07-25T04:28:59.029Z,9.02
2022-07-25T04:31:26.440Z,6.38
2022-07-25T04:33:53.846Z,8.27
2022-07-25T04:36:21.311Z,8.43
2022-07-25T04:38:48.551Z,11.25
2022-07-25T04:41:16.020Z,11.35
2022-07-25T04:43:48.367Z,9.52
2022-07-25T04:46:20.522Z,7.22
2022-07-25T04:48:48.864Z,8.55
2022-07-25T04:51:17.464Z,10.13
2022-07-25T04:53:44.988Z,7.38
2022-07-25T04:56:12.321Z,8.15
2022-07-25T04:58:39.662Z,7.78
2022-07-25T05:01:07.472Z,10.50
2022-07-25T05:03:34.833Z,9.27
2022-07-25T05:06:02.730Z,10.02
2022-07-25T05:08:30.715Z,11.27
2022-07-25T05:10:58.087Z,14.20
2022-07-25T05:13:25.360Z,12.27
2022-07-25T05:15:52.999Z,7.60
2022-07-25T05:18:20.585Z,10.65
2022-07-25T05:20:47.944Z,8.85
2022-07-25T05:23:15.173Z,8.13
2022-07-25T05:25:42.503Z,12.13
2022-07-25T05:28:09.793Z,8.98
2022-07-25T05:30:39.904Z,10.50
2022-07-25T05:33:07.656Z,9.02
2022-07-25T05:35:35.076Z,10.02
2022-07-25T05:38:02.571Z,7.85
2022-07-25T05:40:29.816Z,9.05
2022-07-25T05:43:00.908Z,12.73
2022-07-25T05:45:30.278Z,12.30
2022-07-25T05:47:57.542Z,8.65
2022-07-25T05:50:24.910Z,10.43
2022-07-25T05:52:52.242Z,15.73
2022-07-25T05:55:19.725Z,8.70
2022-07-25T05:57:47.170Z,9.40
2022-07-25T06:00:17.878Z,13.32
2022-07-25T06:02:45.237Z,9.18
2022-07-25T06:05:12.575Z,13.65
2022-07-25T06:07:39.886Z,9.30
2022-07-25T06:10:07.869Z,9.90
2022-07-25T06:12:36.761Z,12.05
2022-07-25T06:15:05.880Z,8.27
2022-07-25T06:17:33.552Z,8.15
2022-07-25T06:20:00.986Z,9.70
2022-07-25T06:22:29.817Z,8.63
2022-07-25T06:24:57.078Z,10.25
2022-07-25T06:27:29.114Z,8.95
2022-07-25T06:29:56.848Z,7.70
2022-07-25T06:32:24.328Z,13.30
2022-07-25T06:34:51.658Z,8.30
2022-07-25T06:37:18.928Z,9.15
2022-07-25T06:39:46.408Z,10.27
2022-07-25T06:42:13.868Z,7.65
2022-07-25T06:44:41.340Z,7.47
2022-07-25T06:47:12.628Z,8.65
2022-07-25T06:49:44.267Z,7.40
2022-07-25T06:52:11.618Z,7.70
2022-07-25T06:54:39.155Z,8.02
2022-07-25T06:57:06.413Z,11.27
2022-07-25T06:59:33.891Z,11.23
2022-07-25T07:02:01.328Z,9.45
2022-07-25T07:04:28.641Z,12.52
2022-07-25T07:06:55.919Z,8.00
2022-07-25T07:09:23.206Z,8.05
2022-07-25T07:11:50.480Z,8.95
2022-07-25T07:14:17.695Z,9.50
2022-07-25T07:16:45.025Z,12.70
2022-07-25T07:19:14.447Z,9.20
2022-07-25T07:21:42.405Z,8.70
2022-07-25T07:24:22.097Z,9.88
2022-07-25T07:26:51.576Z,12.13
2022-07-25T07:29:19.096Z,14.00
2022-07-25T07:31:46.430Z,6.93
2022-07-25T07:34:16.455Z,6.88
2022-07-25T07:36:44.113Z,10.20
2022-07-25T07:39:11.823Z,9.70
2022-07-25T07:41:39.223Z,8.52
2022-07-25T07:44:06.493Z,7.18
2022-07-25T07:46:33.941Z,8.10
2022-07-25T07:49:01.450Z,7.70
2022-07-25T07:51:28.986Z,9.40
2022-07-25T07:54:14.758Z,7.53
2022-07-25T07:56:42.084Z,10.93
2022-07-25T07:59:10.549Z,8.02
2022-07-25T08:01:38.084Z,8.77
2022-07-25T08:04:05.717Z,8.40
2022-07-25T08:06:33.051Z,7.57
2022-07-25T08:09:00.354Z,8.05
2022-07-25T08:11:27.847Z,7.13
2022-07-25T08:13:55.640Z,8.00
2022-07-25T08:16:23.284Z,8.73
2022-07-25T08:18:50.639Z,7.80
2022-07-25T08:21:17.920Z,8.57
2022-07-25T08:23:47.090Z,5.57
2022-07-25T08:26:14.367Z,6.05
2022-07-25T08:28:42.671Z,9.35
2022-07-25T08:31:10.373Z,5.75
2022-07-25T08:33:38.566Z,5.78
2022-07-25T08:36:06.139Z,7.03
2022-07-25T08:38:35.349Z,6.35
2022-07-25T08:41:03.594Z,9.50
2022-07-25T08:43:34.961Z,6.88
2022-07-25T08:46:03.933Z,8.35
2022-07-25T08:48:31.592Z,7.93
2022-07-25T08:51:00.387Z,6.85
2022-07-25T08:53:33.310Z,6.38
2022-07-25T08:56:11.518Z,10.02
2022-07-25T08:58:41.704Z,9.10
2022-07-25T09:01:11.494Z,8.43
2022-07-25T09:03:39.108Z,7.55
2022-07-25T09:06:21.668Z,8.82
2022-07-25T09:08:54.409Z,7.20
2022-07-25T09:11:36.777Z,7.70
2022-07-25T09:14:07.447Z,7.55
2022-07-25T09:16:40.448Z,9.07
2022-07-25T09:19:10.624Z,7.10
2022-07-25T09:21:39.803Z,6.88
2022-07-25T09:24:13.257Z,7.10
2022-07-25T09:26:55.857Z,8.32
2022-07-25T09:29:32.155Z,8.07
2022-07-25T09:32:00.607Z,7.28
2022-07-25T09:34:40.028Z,5.95
2022-07-25T09:37:13.099Z,6.72
2022-07-25T09:39:48.969Z,10.25
2022-07-25T09:42:34.444Z,7.53
2022-07-25T09:45:12.461Z,7.80
2022-07-25T09:47:55.828Z,7.93
2022-07-25T09:50:24.764Z,6.03
2022-07-25T09:52:53.535Z,9.05
2022-07-25T09:55:21.895Z,8.20
2022-07-25T09:57:49.895Z,6.05
2022-07-25T10:00:21.440Z,10.48
2022-07-25T10:02:50.840Z,6.28
2022-07-25T10:05:56.690Z,6.95
2022-07-25T10:08:24.731Z,6.07
2022-07-25T10:10:52.098Z,9.80
2022-07-25T10:13:30.413Z,11.65
2022-07-25T10:15:58.525Z,6.18
2022-07-25T10:18:30.178Z,6.57
2022-07-25T10:21:24.836Z,10.38
2022-07-25T10:24:00.066Z,8.43
2022-07-25T10:26:27.551Z,5.63
2022-07-25T10:28:58.714Z,9.50
2022-07-25T10:31:27.782Z,11.13
2022-07-25T10:34:00.462Z,7.70
2022-07-25T10:36:42.098Z,6.88
2022-07-25T10:39:12.249Z,9.05
2022-07-25T10:41:49.130Z,6.85
2022-07-25T10:44:19.004Z,6.68
2022-07-25T10:46:47.072Z,6.60
2022-07-25T10:49:31.717Z,6.78
2022-07-25T10:52:11.784Z,9.10
2022-07-25T10:54:39.434Z,6.80
2022-07-25T10:57:16.180Z,10.43
2022-07-25T10:59:43.540Z,6.45
2022-07-25T11:02:18.123Z,7.75
2022-07-25T11:07:36.103Z,6.55
2022-07-25T11:10:05.653Z,9.07
2022-07-25T11:12:33.438Z,8.18
2022-07-25T11:15:03.092Z,7.40
2022-07-25T11:17:30.449Z,5.47
2022-07-25T11:20:01.655Z,7.28
2022-07-25T11:22:30.314Z,8.52
2022-07-25T11:24:58.470Z,5.88
2022-07-25T11:27:31.477Z,6.13
2022-07-25T11:30:16.667Z,10.77
2022-07-25T11:32:49.765Z,6.80
2022-07-25T11:35:25.375Z,5.72
2022-07-25T11:38:13.658Z,6.57
2022-07-25T11:40:47.400Z,7.78
2022-07-25T11:43:22.927Z,8.23
2022-07-25T11:46:18.178Z,7.07
2022-07-25T11:48:45.911Z,9.25
2022-07-25T11:51:19.350Z,10.55
2022-07-25T11:53:51.358Z,16.38
2022-07-25T11:59:10.199Z,7.50
2022-07-25T12:01:40.633Z,6.68
2022-07-25T12:04:25.784Z,8.70
2022-07-25T12:07:04.501Z,6.28
2022-07-25T12:09:31.817Z,10.52
2022-07-25T12:12:04.327Z,9.75
2022-07-25T12:14:43.209Z,12.05
2022-07-25T12:17:10.591Z,7.35
2022-07-25T12:19:41.121Z,7.90
2022-07-25T12:22:08.583Z,7.57
2022-07-25T12:24:36.056Z,7.05
2022-07-25T12:27:03.392Z,9.40
2022-07-25T12:29:30.603Z,8.45
2022-07-25T12:31:57.861Z,8.13
2022-07-25T12:34:25.195Z,10.00
2022-07-25T12:36:53.013Z,7.78
2022-07-25T12:39:20.609Z,8.10
2022-07-25T12:41:47.823Z,9.02
2022-07-25T12:44:15.241Z,11.65
2022-07-25T12:46:48.808Z,8.93
2022-07-25T12:49:17.067Z,8.25
2022-07-25T12:51:44.631Z,7.30
2022-07-25T12:54:12.222Z,6.78
2022-07-25T12:56:39.640Z,12.80
2022-07-25T12:59:07.607Z,12.00
2022-07-25T13:01:35.323Z,6.88
2022-07-25T13:04:02.799Z,8.88
2022-07-25T13:06:30.034Z,6.38
2022-07-25T13:09:00.668Z,8.27
2022-07-25T13:11:27.917Z,8.65
2022-07-25T13:13:55.191Z,8.48
2022-07-25T13:16:22.926Z,6.90
2022-07-25T13:19:44.434Z,9.00
2022-07-25T13:22:11.927Z,8.88
2022-07-25T13:24:39.363Z,9.13
2022-07-25T13:27:07.516Z,9.38
2022-07-25T13:29:35.259Z,7.68
2022-07-25T13:32:02.797Z,6.82
2022-07-25T13:34:31.177Z,6.65
2022-07-25T13:36:58.503Z,7.80
2022-07-25T13:39:27.099Z,8.30
2022-07-25T13:41:54.400Z,6.63
2022-07-25T13:44:21.652Z,8.77
2022-07-25T13:46:51.912Z,11.65
2022-07-25T13:49:19.367Z,7.82
2022-07-25T13:51:47.508Z,7.97
2022-07-25T13:54:14.802Z,8.68
2022-07-25T13:56:42.513Z,7.45
2022-07-25T13:59:11.157Z,8.48
2022-07-25T14:01:41.133Z,13.95
2022-07-25T14:04:08.434Z,7.97
2022-07-25T14:06:35.841Z,9.32
2022-07-25T14:09:03.735Z,7.15
2022-07-25T14:11:31.496Z,9.55
2022-07-25T14:13:58.852Z,7.93
2022-07-25T14:16:26.615Z,8.73
2022-07-25T14:18:55.689Z,9.45
2022-07-25T14:21:24.074Z,12.57
2022-07-25T14:23:53.615Z,11.35
2022-07-25T14:26:20.994Z,12.85
2022-07-25T14:28:48.335Z,7.68
2022-07-25T14:31:15.775Z,7.53
2022-07-25T14:33:43.240Z,8.38
2022-07-25T14:36:11.114Z,7.78
2022-07-25T14:38:38.789Z,6.75
2022-07-25T14:41:12.344Z,8.30
2022-07-25T14:43:41.755Z,10.97
2022-07-25T14:46:18.330Z,11.88
2022-07-25T14:48:45.863Z,8.48
2022-07-25T14:51:17.840Z,6.68
2022-07-25T14:53:52.994Z,6.95
2022-07-25T14:56:20.659Z,9.30
2022-07-25T14:58:51.372Z,8.57
2022-07-25T15:01:20.904Z,7.70
2022-07-25T15:03:48.825Z,10.20
2022-07-25T15:06:18.913Z,8.38
2022-07-25T15:08:46.677Z,9.20
2022-07-25T15:11:14.088Z,9.43
2022-07-25T15:13:41.338Z,10.88
2022-07-25T15:16:08.782Z,12.20
2022-07-25T15:18:58.526Z,8.65
2022-07-25T15:21:24.351Z,11.73
2022-07-25T15:23:56.453Z,8.07
2022-07-25T15:26:23.974Z,7.72
2022-07-25T15:28:51.608Z,9.73
2022-07-25T15:31:20.821Z,7.88
2022-07-25T15:33:48.821Z,9.45
2022-07-25T15:36:16.194Z,8.73
2022-07-25T15:38:45.201Z,9.25
2022-07-25T15:41:13.117Z,11.00
2022-07-25T15:43:43.681Z,9.60
2022-07-25T15:46:12.475Z,9.75
2022-07-25T15:48:40.558Z,6.93
2022-07-25T15:51:08.220Z,8.68
2022-07-25T15:53:35.506Z,10.93
2022-07-25T15:56:07.481Z,8.82
2022-07-25T15:58:38.351Z,7.72
2022-07-25T16:05:08.366Z,9.60
2022-07-25T16:12:16.601Z,9.07
2022-07-25T16:14:47.831Z,10.13
2022-07-25T16:17:36.519Z,11.45
2022-07-25T16:20:06.759Z,9.43
2022-07-25T16:22:38.058Z,9.27
2022-07-25T16:25:05.786Z,8.32
2022-07-25T16:27:33.119Z,11.52
2022-07-25T16:30:01.721Z,8.30
2022-07-25T16:32:29.013Z,8.80
2022-07-25T16:34:56.271Z,8.77
2022-07-25T16:37:23.702Z,7.28
2022-07-25T16:39:51.188Z,8.52
2022-07-25T16:42:18.448Z,8.98
2022-07-25T16:44:47.704Z,7.53
2022-07-25T16:47:15.086Z,7.82
2022-07-25T16:49:42.696Z,10.95
2022-07-25T16:52:10.072Z,9.15
2022-07-25T16:54:37.818Z,8.02
2022-07-25T16:57:06.084Z,7.55
2022-07-25T16:59:33.429Z,12.35
2022-07-25T17:02:00.912Z,11.32
2022-07-25T17:04:29.574Z,14.35
2022-07-25T17:07:00.347Z,9.90
2022-07-25T17:09:34.625Z,8.05
2022-07-25T17:12:02.147Z,10.02
2022-07-25T17:14:30.422Z,12.50
2022-07-25T17:16:58.849Z,7.43
2022-07-25T17:19:26.735Z,10.75
2022-07-25T17:21:54.612Z,10.38
2022-07-25T17:24:26.360Z,7.50
2022-07-25T17:26:54.214Z,8.40
2022-07-25T17:29:21.755Z,11.23
2022-07-25T17:31:49.435Z,8.52
2022-07-25T17:34:16.753Z,7.53
2022-07-25T17:36:44.167Z,13.30
2022-07-25T17:39:11.536Z,8.00
2022-07-25T17:41:38.918Z,10.30
2022-07-25T17:44:11.423Z,8.55
2022-07-25T17:46:39.356Z,9.93
2022-07-25T17:49:06.831Z,10.80
2022-07-25T17:51:34.581Z,6.90
2022-07-25T17:54:01.825Z,8.38
2022-07-25T17:56:29.073Z,7.68
2022-07-25T17:58:56.313Z,8.60
2022-07-25T18:01:23.663Z,10.02
2022-07-25T18:03:51.093Z,11.07
2022-07-25T18:06:18.624Z,13.63
2022-07-25T18:08:46.385Z,8.13
2022-07-25T18:11:13.985Z,7.03
2022-07-25T18:13:41.333Z,7.60
2022-07-25T18:16:09.443Z,7.05
2022-07-25T18:18:37.371Z,9.07
2022-07-25T18:21:04.851Z,7.70
2022-07-25T18:23:32.212Z,15.23
2022-07-25T18:25:59.530Z,7.93
2022-07-25T18:28:26.873Z,6.65
2022-07-25T18:30:54.959Z,8.65
2022-07-25T18:33:22.289Z,7.40
2022-07-25T18:35:51.366Z,9.48
2022-07-25T18:38:18.765Z,7.00
2022-07-25T18:40:46.129Z,8.50
2022-07-25T18:43:13.769Z,9.40
2022-07-25T18:45:42.153Z,7.40
2022-07-25T18:48:10.044Z,10.15
2022-07-25T18:50:37.565Z,8.77
2022-07-25T18:53:05.415Z,10.23
2022-07-25T18:55:32.754Z,8.82
2022-07-25T18:58:00.068Z,10.40
2022-07-25T19:00:27.685Z,8.00
2022-07-25T19:02:54.931Z,9.38
2022-07-25T19:05:22.309Z,10.60
2022-07-25T19:07:49.666Z,8.70
2022-07-25T19:10:17.018Z,11.73
2022-07-25T19:12:44.374Z,9.73
2022-07-25T19:15:11.849Z,9.30
2022-07-25T19:17:39.434Z,10.65
2022-07-25T19:20:07.598Z,9.40
2022-07-25T19:22:35.026Z,8.75
2022-07-25T19:25:05.677Z,10.63
2022-07-25T19:27:33.128Z,9.30
2022-07-25T19:30:00.887Z,10.60
2022-07-25T19:32:28.150Z,15.40
2022-07-25T19:34:55.403Z,11.38
2022-07-25T19:37:22.740Z,9.95
2022-07-25T19:39:53.180Z,10.57
2022-07-25T19:42:21.380Z,9.85
2022-07-25T19:44:48.882Z,12.50
2022-07-25T19:47:16.161Z,13.82
2022-07-25T19:49:43.752Z,10.63
2022-07-25T19:52:11.481Z,11.40
2022-07-25T19:54:38.951Z,11.32
2022-07-25T19:57:07.050Z,11.00
2022-07-25T19:59:34.483Z,9.63
2022-07-25T20:02:03.478Z,18.23
2022-07-25T20:04:31.122Z,7.97
2022-07-25T20:07:02.119Z,12.95
2022-07-25T20:09:30.105Z,12.10
2022-07-25T20:11:58.009Z,10.27
2022-07-25T20:14:25.253Z,8.07
2022-07-25T20:16:52.574Z,8.65
2022-07-25T20:19:19.952Z,12.05
2022-07-25T20:21:48.639Z,11.07
2022-07-25T20:24:21.173Z,11.35
2022-07-25T20:26:49.280Z,9.13
2022-07-25T20:29:16.865Z,10.73
2022-07-25T20:31:45.066Z,10.52
2022-07-25T20:34:13.764Z,7.93
2022-07-25T20:36:42.893Z,11.07
2022-07-25T20:39:10.791Z,11.25
2022-07-25T20:41:39.094Z,10.30
2022-07-25T20:44:06.802Z,9.52
2022-07-25T20:46:36.228Z,7.95
2022-07-25T20:49:13.675Z,13.48
2022-07-25T20:51:41.322Z,10.65
2022-07-25T20:54:09.273Z,10.95
2022-07-25T20:56:36.573Z,10.43
2022-07-25T20:59:04.380Z,10.18
2022-07-25T21:01:32.250Z,9.15
2022-07-25T21:04:02.202Z,9.93
2022-07-25T21:06:34.994Z,9.07
2022-07-25T21:09:05.135Z,7.97
2022-07-25T21:11:32.738Z,10.07
2022-07-25T21:13:59.995Z,45.75
2022-07-25T21:16:28.118Z,75.55
2022-07-25T21:19:01.315Z,78.38
2022-07-25T21:21:29.162Z,56.63
2022-07-25T21:23:56.624Z,40.10
2022-07-25T21:26:26.960Z,32.80
2022-07-25T21:28:57.569Z,30.85
2022-07-25T21:31:30.818Z,28.20
2022-07-25T21:33:58.658Z,27.42
2022-07-25T21:36:26.048Z,23.10
2022-07-25T21:38:53.728Z,23.85
2022-07-25T21:41:21.178Z,21.13
2022-07-25T21:43:49.482Z,20.38
2022-07-25T21:46:17.261Z,19.90
2022-07-25T21:49:03.083Z,28.40
2022-07-25T21:51:40.352Z,25.08
2022-07-25T21:54:08.928Z,16.50
2022-07-25T21:56:36.610Z,20.30
2022-07-25T21:59:04.283Z,18.95
2022-07-25T22:01:31.837Z,17.13
2022-07-25T22:04:01.962Z,20.00
2022-07-25T22:06:35.770Z,21.42
2022-07-25T22:09:04.920Z,20.35
2022-07-25T22:11:52.311Z,22.30
2022-07-25T22:18:47.579Z,14.90
2022-07-25T22:21:44.109Z,17.42
2022-07-25T22:24:44.465Z,16.95
2022-07-25T22:27:14.161Z,17.83
2022-07-25T22:29:41.689Z,19.40
2022-07-25T22:32:10.110Z,15.73
2022-07-25T22:34:37.504Z,12.30
2022-07-25T22:37:05.066Z,15.63
2022-07-25T22:39:32.487Z,18.65
2022-07-25T22:41:59.991Z,14.50
2022-07-25T22:44:30.325Z,12.60
2022-07-25T22:46:57.703Z,14.65
2022-07-25T22:49:25.598Z,13.00
2022-07-25T22:51:54.313Z,10.85
2022-07-25T22:54:21.766Z,7.38
2022-07-25T22:56:49.311Z,9.55
2022-07-25T22:59:17.738Z,8.25
2022-07-25T23:01:45.348Z,7.95
2022-07-25T23:04:12.897Z,7.00
2022-07-25T23:06:40.337Z,6.85
2022-07-25T23:09:08.315Z,10.35
2022-07-25T23:11:36.098Z,7.22
2022-07-25T23:14:03.623Z,5.53
2022-07-25T23:16:31.061Z,6.32
2022-07-25T23:18:58.607Z,9.27
2022-07-25T23:21:29.244Z,4.93
2022-07-25T23:23:58.699Z,6.32
2022-07-25T23:26:27.996Z,6.35
2022-07-25T23:28:56.276Z,5.05
2022-07-25T23:31:23.865Z,4.70
2022-07-25T23:33:51.233Z,4.90
2022-07-25T23:36:18.492Z,5.85
2022-07-25T23:38:46.055Z,6.32
2022-07-25T23:41:13.586Z,6.05
2022-07-25T23:43:59.569Z,6.63
2022-07-25T23:46:29.472Z,5.03
2022-07-25T23:48:59.300Z,4.63
2022-07-25T23:51:27.094Z,7.55
2022-07-25T23:53:54.833Z,6.68
2022-07-25T23:56:22.355Z,5.68
2022-07-25T23:58:50.944Z,6.28
